Rechercher aéroport 
image banner adimage banner adimage banner ad
image banner ad

5CL3 - Mapes Ranch

Situé à Modesto, United States

ICAO - 5CL3, IATA -

Données fournies par Airmate  

Information générale

Coordonnées: N37°40'5" W121°11'55"
Élévation : 34 feet MSL.
Variation magnétique : 16° East
Voir autres Aéroports à California

Données opérationnelles

Special qualification required
Heure actuelle UTC:
Heure actuelle locale:
Météo à : KTCY - Tracy Muni ( 21 km )
METAR: KTCY 231435Z AUTO 31007KT 9SM CLR 21/05 A2993 RMK A01
Voir NOTAMs / SUP AIP / TFR affectant cet aéroport [VIEW]
Fréquences de communication: [VIEW]

Pistes:

Identifiant RWYQFULongueur (ft)Largeur (ft)SurfaceLDA (ft)
111800125EARTH
291800125EARTH

Coordonnées de l'aéroport

Adresse: Modesto United States

Vue satellite de 5CL3